• Join FlightAware (Why Join?)
  • Login
  • US Flag 
06:51AM EDT


 

Airport Tracker/Info


-or-


 

Live Flight TrackerFlight Track Log ✈ DAL1029 ✈ 22-Jul-2013 ✈ KMSP - KATL

Flight Track Log - Related Links

Times and Time Zones

All times are in EDT time to prevent confusion due to time zone crossing. See the DAL1029 flight status page for this flight to view local times or setup timezone preferences in your user account.

Time Position Orientation Groundspeed Altitude Reporting Facility
EDT Latitude Longitude Course Direction KTS MPH feet Rate Location/Type
11:23AM 44.8333 -93.2167 120° Southeast 184 212 2,400  Level Minneapolis TRACON
11:24AM 44.8169 -93.1644 114° Southeast 237 273 3,100 1,800 Climbing Minneapolis Center
11:25AM 44.7747 -93.0675 122° Southeast 287 330 5,500 2,340 Climbing Minneapolis Center
11:26AM 44.7164 -92.9836 134° Southeast 296 341 8,000 2,220 Climbing Minneapolis Center
11:27AM 44.4896 -92.8502 137° Southeast  Level Estimated
11:27AM 44.6544 -92.8975 135° Southeast 311 358 10,100  Level Minneapolis Center
11:28AM 44.3913 -92.7581 133° Southeast  Level Estimated
11:28AM 44.5867 -92.7978 134° Southeast 356 410 11,300  Level Minneapolis Center
11:29AM 44.2930 -92.6663 120° Southeast  Level Estimated
11:29AM 44.5075 -92.6844 134° Southeast 411 473 12,800  Level Minneapolis Center
11:30AM 44.4050 -92.5411 135° Southeast 437 503 15,200 2,220 Climbing Minneapolis Center
11:31AM 44.3081 -92.3822 130° Southeast 447 514 17,900 1,980 Climbing Minneapolis Center
11:33AM 44.2444 -92.2289 120° Southeast 456 525 19,800 1,740 Climbing Minneapolis Center
11:34AM 44.1772 -92.0736 121° Southeast 466 536 21,600 1,440 Climbing Minneapolis Center
11:35AM 44.1083 -91.9167 121° Southeast 474 545 22,800 1,260 Climbing Minneapolis Center
11:36AM 44.0219 -91.7233 122° Southeast 489 563 24,300 1,500 Climbing Minneapolis Center
11:37AM 43.9578 -91.5758 121° Southeast 493 567 26,000 1,500 Climbing Minneapolis Center
11:38AM 43.8797 -91.4244 126° Southeast 489 563 27,500 1,440 Climbing Minneapolis Center
11:39AM 43.7861 -91.2942 135° Southeast 483 556 29,000 1,380 Climbing Minneapolis Center
11:40AM 43.6753 -91.1389 135° Southeast 477 549 30,400 1,080 Climbing Minneapolis Center
11:41AM 43.5833 -91.0092 134° Southeast 475 547 31,300 900 Climbing Minneapolis Center
11:42AM 43.4906 -90.8819 135° Southeast 474 545 32,300 780 Climbing Minneapolis Center
11:43AM 43.3989 -90.7550 135° Southeast 471 542 33,000 300 Climbing Minneapolis Center
11:44AM 43.3078 -90.6300 135° Southeast 466 536 33,000  Level Minneapolis Center
11:45AM 43.1989 -90.4786 135° Southeast 467 537 33,000  Level Minneapolis Center
11:46AM 43.1067 -90.3539 135° Southeast 468 539 33,000  Level Minneapolis Center
11:47AM 43.0061 -90.2186 135° Southeast 465 535 33,000  Level Minneapolis Center
11:48AM 42.9161 -90.0975 135° Southeast 459 528 33,000  Level Minneapolis Center
11:50AM 42.7667 -89.9328 141° Southeast 468 539 33,000  Level Chicago Center
11:51AM 42.6417 -89.9033 170° South 454 522 33,000  Level Chicago Center
11:52AM 42.5183 -89.8769 171° South 450 518 33,000  Level Chicago Center
11:53AM 42.3944 -89.8483 170° South 451 519 33,000  Level Chicago Center
11:54AM 42.2692 -89.8219 171° South 454 522 33,000  Level Chicago Center
11:55AM 42.1236 -89.7892 171° South 455 524 33,000  Level Chicago Center
11:56AM 41.9897 -89.7611 171° South 458 527 33,000  Level Chicago Center
11:57AM 41.8639 -89.7336 171° South 459 528 33,000  Level Chicago Center
11:58AM 41.7353 -89.7050 171° South 460 529 33,000  Level Chicago Center
11:59AM 41.6069 -89.6783 171° South 465 535 33,000  Level Chicago Center
12:00PM 41.4794 -89.6508 171° South 464 534 33,000  Level Chicago Center
12:01PM 41.3517 -89.6244 171° South 463 533 33,000  Level Chicago Center
12:02PM 41.2231 -89.5981 171° South 466 536 33,000  Level Chicago Center
12:03PM 41.0961 -89.5708 171° South 462 532 33,000  Level Chicago Center
12:04PM 40.9436 -89.5183 165° South 467 537 33,000  Level Chicago Center
12:05PM 40.8161 -89.4714 164° South 469 540 33,000  Level Chicago Center
12:06PM 40.6858 -89.4242 165° South 476 548 33,000  Level Chicago Center
12:07PM 40.5556 -89.3764 164° South 481 554 33,000  Level Chicago Center
12:08PM 40.4242 -89.3297 165° South 484 557 33,000  Level Chicago Center
12:09PM 40.2933 -89.2836 165° South 484 557 33,000  Level Chicago Center
12:10PM 40.1658 -89.2342 163° South 476 548 33,000  Level Chicago Center
12:11PM 40.0350 -89.1878 165° South 482 555 33,000  Level Kansas City Center
12:12PM 39.9064 -89.1419 165° South 480 552 33,000  Level Kansas City Center
12:13PM 39.7792 -89.0986 165° South 474 545 33,000  Level Kansas City Center
12:14PM 39.6519 -89.0533 165° South 474 545 33,000  Level Kansas City Center
12:15PM 39.5256 -89.0108 165° South 470 541 33,000  Level Kansas City Center
12:16PM 39.3867 -88.9622 165° South 470 541 33,000  Level Kansas City Center
12:17PM 39.2625 -88.9203 165° South 464 534 33,000  Level Kansas City Center
12:18PM 39.1389 -88.8778 165° South 457 526 33,000  Level Kansas City Center
12:19PM 38.9872 -88.8244 165° South 467 537 33,000  Level Kansas City Center
12:20PM 38.8603 -88.7792 164° South 471 542 33,000  Level Kansas City Center
12:21PM 38.7336 -88.7358 165° South 470 541 33,000  Level Kansas City Center
12:23PM 38.5956 -88.6869 165° South 470 541 33,000  Level Kansas City Center
12:24PM 38.4636 -88.6428 165° South 468 539 33,000  Level Kansas City Center
12:25PM 38.3436 -88.6014 165° South 456 525 33,000  Level Kansas City Center
12:26PM 38.2233 -88.5622 166° South 449 517 33,000  Level Kansas City Center
12:27PM 38.1039 -88.5208 165° South 446 513 33,000  Level Kansas City Center
12:28PM 37.9886 -88.4819 165° South 436 502 33,000  Level Kansas City Center
12:29PM 37.8703 -88.4447 166° South 436 502 33,000  Level Kansas City Center
12:30PM 37.7283 -88.3983 166° South 437 503 33,000  Level Kansas City Center
12:31PM 37.6092 -88.3567 165° South 441 507 33,000  Level Kansas City Center
12:31PM 37.5258 -88.3331 167° South 439 505 33,000  Level Memphis Center
12:32PM 37.4128 -88.2967 166° South 439 505 33,000  Level Memphis Center
12:33PM 37.2950 -88.2450 161° South 439 505 33,000  Level Memphis Center
12:34PM 37.2056 -88.1250 133° Southeast 439 505 33,000  Level Memphis Center
12:35PM 37.1178 -88.0025 132° Southeast 451 519 33,000  Level Memphis Center
12:36PM 37.0386 -87.8933 132° Southeast 466 536 33,000  Level Memphis Center
12:37PM 36.9528 -87.7764 133° Southeast 466 536 33,000  Level Memphis Center
12:38PM 36.8669 -87.6572 132° Southeast 466 536 33,000  Level Memphis Center
12:39PM 36.7833 -87.5436 133° Southeast 460 529 33,000  Level Memphis Center
12:40PM 36.6994 -87.4353 134° Southeast 446 513 33,000  Level Memphis Center
12:41PM 36.6111 -87.3117 132° Southeast 440 506 33,000  Level Memphis Center
12:42PM 36.5247 -87.1989 134° Southeast 440 506 33,000  Level Memphis Center
12:43PM 36.4406 -87.0886 133° Southeast 440 506 33,000  Level Memphis Center
12:44PM 36.3544 -86.9786 134° Southeast 440 506 33,000  Level Memphis Center
12:45PM 36.2783 -86.8686 131° Southeast 450 518 33,000  Level Memphis Center
12:46PM 36.1833 -86.7519 135° Southeast 470 541 33,000  Level Memphis Center
12:47PM 36.0819 -86.6381 138° Southeast 456 525 33,000  Level Memphis Center
12:48PM 35.9772 -86.5531 147° Southeast 450 518 33,000  Level Memphis Center
12:49PM 35.8725 -86.4683 147° Southeast 450 518 33,000  Level Memphis Center
12:50PM 35.7675 -86.3864 148° Southeast 450 518 33,000  Level Memphis Center
12:52PM 35.6128 -86.2636 147° Southeast 450 518 33,000  Level Atlanta Center
12:53PM 35.4994 -86.1714 146° Southeast 450 518 33,000  Level Atlanta Center
12:54PM 35.3944 -86.0897 148° Southeast 451 519 33,000  Level Atlanta Center
12:55PM 35.2875 -86.0056 147° Southeast 451 519 33,000  Level Atlanta Center
12:56PM 35.1844 -85.9244 147° Southeast 451 519 33,000  Level Atlanta Center
12:57PM 35.0936 -85.8511 147° Southeast 443 510 33,000  Level Atlanta Center
12:58PM 34.9906 -85.7703 147° Southeast 443 510 33,000 -600 Level Atlanta Center
12:59PM 34.8872 -85.6897 147° Southeast 443 510 31,900 -2,220 Descending Atlanta Center
01:00PM 34.7819 -85.6067 147° Southeast 448 516 28,600 -2,700 Descending Atlanta Center
01:01PM 34.6806 -85.5239 146° Southeast 453 521 26,500 -2,460 Descending Atlanta Center
01:02PM 34.5772 -85.4439 147° Southeast 448 516 23,700 -2,700 Descending Atlanta Center
01:03PM 34.4758 -85.3642 147° Southeast 448 516 21,200 -2,520 Descending Atlanta Center
01:04PM 34.3661 -85.2769 147° Southeast 441 507 18,700 -2,400 Descending Atlanta Center
01:05PM 34.2708 -85.2050 148° Southeast 425 489 16,500 -2,100 Descending Atlanta Center
01:06PM 34.1797 -85.1361 148° Southeast 404 465 14,500 -1,260 Descending Atlanta Center
01:07PM 34.1033 -85.0447 135° Southeast 393 452 14,000 -300 Descending Atlanta Center
01:08PM 34.0308 -84.9536 134° Southeast 378 435 14,000 -780 Level Atlanta Center
01:09PM 33.9628 -84.8653 133° Southeast 371 427 12,500 -1,020 Descending Atlanta Center
01:10PM 33.8964 -84.7769 132° Southeast 359 413 12,000 -300 Descending Atlanta Center
01:11PM 33.8667 -84.7000 115° Southeast 352 405 12,000  Level Atlanta TRACON
01:12PM 33.7833 -84.6333 146° Southeast 339 390 12,000  Level Atlanta TRACON
01:13PM 33.7333 -84.5667 132° Southeast 285 328 12,000 -840 Level Atlanta TRACON
01:14PM 33.7333 -84.4667 90° East 296 341 10,500 -1,800 Descending Atlanta TRACON
01:15PM 33.7333 -84.3667 90° East 296 341 8,400 -2,100 Descending Atlanta TRACON
01:16PM 33.7333 -84.2833 90° East 275 316 6,400 -1,680 Descending Atlanta TRACON
01:17PM 33.7333 -84.1833 90° East 268 308 5,000 -720 Descending Atlanta TRACON
01:18PM 33.7333 -84.0833 90° East 270 311 5,000  Level Atlanta TRACON
01:19PM 33.7000 -84.0333 129° Southeast 276 318 5,000  Level Atlanta TRACON
01:20PM 33.6500 -84.0667 209° Southwest 193 222 5,000  Level Atlanta TRACON
01:21PM 33.6500 -84.1333 270° West 178 205 5,000 -180 Level Atlanta TRACON
01:22PM 33.6500 -84.1833 270° West 177 204 4,700 -720 Descending Atlanta TRACON
01:23PM 33.6500 -84.2500 270° West 178 205 3,700 -1,020 Descending Atlanta TRACON